createdAt,value
2022-08-01T00:00:10.078Z,18.00
2022-08-01T00:02:40.956Z,18.00
2022-08-01T00:05:09.601Z,17.90
2022-08-01T00:07:37.910Z,17.90
2022-08-01T00:10:06.893Z,17.80
2022-08-01T00:12:33.749Z,17.70
2022-08-01T00:15:00.805Z,17.60
2022-08-01T00:17:27.661Z,17.60
2022-08-01T00:19:54.481Z,17.50
2022-08-01T00:22:21.286Z,17.50
2022-08-01T00:24:48.129Z,17.50
2022-08-01T00:27:15.016Z,17.50
2022-08-01T00:30:12.761Z,17.50
2022-08-01T00:32:31.861Z,17.50
2022-08-01T00:34:58.861Z,17.50
2022-08-01T00:37:25.774Z,17.50
2022-08-01T00:39:52.648Z,17.50
2022-08-01T00:42:19.619Z,17.50
2022-08-01T00:44:46.639Z,17.50
2022-08-01T00:47:13.512Z,17.60
2022-08-01T00:49:40.535Z,17.50
2022-08-01T00:52:09.360Z,17.50
2022-08-01T00:54:36.581Z,17.60
2022-08-01T00:57:04.436Z,17.60
2022-08-01T00:59:31.921Z,17.60
2022-08-01T01:01:58.810Z,17.60
2022-08-01T01:04:26.063Z,17.60
2022-08-01T01:07:01.134Z,17.70
2022-08-01T01:10:01.208Z,17.70
2022-08-01T01:12:38.470Z,17.70
2022-08-01T01:15:10.988Z,17.70
2022-08-01T01:18:07.095Z,17.60
2022-08-01T01:20:45.900Z,17.60
2022-08-01T01:23:37.035Z,17.60
2022-08-01T01:26:31.115Z,17.50
2022-08-01T01:29:22.074Z,17.40
2022-08-01T01:32:04.268Z,17.30
2022-08-01T01:34:35.436Z,17.30
2022-08-01T01:37:03.858Z,17.20
2022-08-01T01:39:31.793Z,17.20
2022-08-01T01:41:59.519Z,17.20
2022-08-01T01:44:28.457Z,17.20
2022-08-01T01:46:57.363Z,17.20
2022-08-01T01:49:26.562Z,17.10
2022-08-01T01:52:02.289Z,17.10
2022-08-01T01:54:33.981Z,17.00
2022-08-01T01:57:03.277Z,17.00
2022-08-01T01:59:32.963Z,16.90
2022-08-01T02:02:06.174Z,16.90
2022-08-01T02:04:36.144Z,16.90
2022-08-01T02:07:03.942Z,16.80
2022-08-01T02:09:32.927Z,16.80
2022-08-01T02:12:08.194Z,16.70
2022-08-01T02:14:37.855Z,16.70
2022-08-01T02:17:05.371Z,16.70
2022-08-01T02:19:34.595Z,16.70
2022-08-01T02:22:14.966Z,16.70
2022-08-01T02:24:53.204Z,16.70
2022-08-01T02:27:26.742Z,16.70
2022-08-01T02:29:59.760Z,16.60
2022-08-01T02:32:39.395Z,16.60
2022-08-01T02:35:12.553Z,16.60
2022-08-01T02:37:45.081Z,16.60
2022-08-01T02:40:14.503Z,16.50
2022-08-01T02:42:47.616Z,16.50
2022-08-01T02:45:15.916Z,16.40
2022-08-01T02:47:45.185Z,16.40
2022-08-01T02:50:15.107Z,16.40
2022-08-01T02:52:44.586Z,16.40
2022-08-01T02:55:12.905Z,16.40
2022-08-01T02:57:51.458Z,16.40
2022-08-01T03:00:20.311Z,16.40
2022-08-01T03:02:55.716Z,16.40
2022-08-01T03:05:23.544Z,16.40
2022-08-01T03:07:52.366Z,16.30
2022-08-01T03:10:20.452Z,16.30
2022-08-01T03:12:49.458Z,16.30
2022-08-01T03:15:17.614Z,16.30
2022-08-01T03:17:46.680Z,16.30
2022-08-01T03:20:17.685Z,16.30
2022-08-01T03:22:46.778Z,16.40
2022-08-01T03:25:16.118Z,16.30
2022-08-01T03:27:46.274Z,16.30
2022-08-01T03:30:14.058Z,16.30
2022-08-01T03:32:41.075Z,16.30
2022-08-01T03:35:08.837Z,16.30
2022-08-01T03:38:15.267Z,16.30
2022-08-01T03:40:50.867Z,16.30
2022-08-01T03:43:23.367Z,16.20
2022-08-01T03:45:54.226Z,16.20
2022-08-01T03:48:28.201Z,16.10
2022-08-01T03:50:55.912Z,16.10
2022-08-01T03:53:26.740Z,16.00
2022-08-01T03:55:55.095Z,16.00
2022-08-01T03:58:22.849Z,16.00
2022-08-01T04:00:50.161Z,16.00
2022-08-01T04:03:17.899Z,15.90
2022-08-01T04:05:44.921Z,15.90
2022-08-01T04:08:11.808Z,15.90
2022-08-01T04:10:39.370Z,15.90
2022-08-01T04:13:06.239Z,15.90
2022-08-01T04:15:33.161Z,15.80
2022-08-01T04:17:59.982Z,15.90
2022-08-01T04:20:27.867Z,15.80
2022-08-01T04:22:54.745Z,15.80
2022-08-01T04:25:30.570Z,15.80
2022-08-01T04:27:58.308Z,15.90
2022-08-01T04:30:30.691Z,15.80
2022-08-01T04:33:01.072Z,15.80
2022-08-01T04:36:04.112Z,15.80
2022-08-01T04:38:28.186Z,15.80
2022-08-01T04:40:57.386Z,15.90
2022-08-01T04:43:24.372Z,15.90
2022-08-01T04:45:52.355Z,16.00
2022-08-01T04:48:20.302Z,16.00
2022-08-01T04:50:50.306Z,16.00
2022-08-01T04:53:19.246Z,16.00
2022-08-01T04:55:47.093Z,16.00
2022-08-01T04:58:18.253Z,16.10
2022-08-01T05:00:46.460Z,16.20
2022-08-01T05:03:13.290Z,16.20
2022-08-01T05:05:40.170Z,16.30
2022-08-01T05:08:07.264Z,16.40
2022-08-01T05:10:34.912Z,16.50
2022-08-01T05:13:02.011Z,16.60
2022-08-01T05:15:28.828Z,16.70
2022-08-01T05:17:55.927Z,16.80
2022-08-01T05:20:22.795Z,16.90
2022-08-01T05:22:49.692Z,17.00
2022-08-01T05:25:20.095Z,17.10
2022-08-01T05:27:51.665Z,17.10
2022-08-01T05:30:18.523Z,17.20
2022-08-01T05:32:45.364Z,17.30
2022-08-01T05:35:12.517Z,17.30
2022-08-01T05:37:39.325Z,17.40
2022-08-01T05:40:06.977Z,17.50
2022-08-01T05:42:33.828Z,17.50
2022-08-01T05:45:00.641Z,17.50
2022-08-01T05:47:27.482Z,17.60
2022-08-01T05:49:57.240Z,17.70
2022-08-01T05:52:24.054Z,17.80
2022-08-01T05:54:50.840Z,17.90
2022-08-01T05:57:17.717Z,18.00
2022-08-01T05:59:44.517Z,18.10
2022-08-01T06:02:11.554Z,18.20
2022-08-01T06:04:38.438Z,18.40
2022-08-01T06:07:05.248Z,18.50
2022-08-01T06:09:32.065Z,18.70
2022-08-01T06:11:58.894Z,18.90
2022-08-01T06:14:25.718Z,19.10
2022-08-01T06:16:52.478Z,19.30
2022-08-01T06:19:19.270Z,19.40
2022-08-01T06:21:46.124Z,19.60
2022-08-01T06:24:13.966Z,19.80
2022-08-01T06:26:40.751Z,20.00
2022-08-01T06:29:07.822Z,20.30
2022-08-01T06:31:36.849Z,20.50
2022-08-01T06:34:03.956Z,20.70
2022-08-01T06:36:30.779Z,20.90
2022-08-01T06:38:57.565Z,21.10
2022-08-01T06:41:24.525Z,21.30
2022-08-01T06:43:51.361Z,21.40
2022-08-01T06:46:18.131Z,21.60
2022-08-01T06:48:45.005Z,21.80
2022-08-01T06:51:14.837Z,22.10
2022-08-01T06:53:43.856Z,22.30
2022-08-01T06:56:11.936Z,22.60
2022-08-01T06:58:38.976Z,22.90
2022-08-01T07:01:09.756Z,23.30
2022-08-01T07:03:54.384Z,23.70
2022-08-01T07:06:23.708Z,24.00
2022-08-01T07:08:50.632Z,24.30
2022-08-01T07:11:17.829Z,24.50
2022-08-01T07:13:46.741Z,24.80
2022-08-01T07:16:18.356Z,25.30
2022-08-01T07:18:45.351Z,25.70
2022-08-01T07:21:16.490Z,26.00
2022-08-01T07:23:59.578Z,26.20
2022-08-01T07:26:28.257Z,26.50
2022-08-01T07:28:55.167Z,27.00
2022-08-01T07:31:21.986Z,27.00
2022-08-01T07:33:49.486Z,27.20
2022-08-01T07:36:17.645Z,27.40
2022-08-01T07:38:45.369Z,27.40
2022-08-01T07:41:13.481Z,27.50
2022-08-01T07:43:50.674Z,27.50
2022-08-01T07:46:23.199Z,27.70
2022-08-01T07:48:50.462Z,27.60
2022-08-01T07:51:17.310Z,27.60
2022-08-01T07:53:46.194Z,27.40
2022-08-01T07:56:13.029Z,27.30
2022-08-01T07:58:39.825Z,27.10
2022-08-01T08:01:07.760Z,26.90
2022-08-01T08:03:34.611Z,26.90
2022-08-01T08:06:01.429Z,26.90
2022-08-01T08:08:28.468Z,26.90
2022-08-01T08:10:55.420Z,26.90
2022-08-01T08:13:22.358Z,27.10
2022-08-01T08:15:49.316Z,27.20
2022-08-01T08:18:17.083Z,27.30
2022-08-01T08:20:44.272Z,27.40
2022-08-01T08:23:42.749Z,27.40
2022-08-01T08:26:12.109Z,27.40
2022-08-01T08:28:40.382Z,27.80
2022-08-01T08:31:24.901Z,27.80
2022-08-01T08:33:53.013Z,28.10
2022-08-01T08:36:19.829Z,28.20
2022-08-01T08:38:47.865Z,28.20
2022-08-01T08:41:20.683Z,28.40
2022-08-01T08:43:48.264Z,28.70
2022-08-01T08:46:15.609Z,29.00
2022-08-01T08:48:42.897Z,29.50
2022-08-01T08:51:12.395Z,30.20
2022-08-01T08:53:45.530Z,30.70
2022-08-01T08:56:16.120Z,31.00
2022-08-01T08:58:46.129Z,31.20
2022-08-01T09:01:13.854Z,31.50
2022-08-01T09:03:41.608Z,31.70
2022-08-01T09:06:08.920Z,31.90
2022-08-01T09:08:36.400Z,32.40
2022-08-01T09:11:04.707Z,32.60
2022-08-01T09:13:31.582Z,32.90
2022-08-01T09:15:59.959Z,33.20
2022-08-01T09:18:34.993Z,33.40
2022-08-01T09:21:14.885Z,33.40
2022-08-01T09:24:06.303Z,33.60
2022-08-01T09:26:35.937Z,33.20
2022-08-01T09:29:05.754Z,33.20
2022-08-01T09:31:42.817Z,32.80
2022-08-01T09:34:15.615Z,32.90
2022-08-01T09:36:47.175Z,32.50
2022-08-01T09:39:16.578Z,31.70
2022-08-01T09:41:43.438Z,31.10
2022-08-01T09:44:10.284Z,31.00
2022-08-01T09:46:37.534Z,31.70
2022-08-01T09:49:07.448Z,32.50
2022-08-01T09:51:59.625Z,33.20
2022-08-01T09:54:31.700Z,33.10
2022-08-01T09:57:09.958Z,32.50
2022-08-01T09:59:57.353Z,32.00
2022-08-01T10:02:38.556Z,31.50
2022-08-01T10:05:08.979Z,31.90
2022-08-01T10:07:43.736Z,32.50
2022-08-01T10:10:13.146Z,32.70
2022-08-01T10:12:45.949Z,32.70
2022-08-01T10:15:18.006Z,32.40
2022-08-01T10:17:54.363Z,32.30
2022-08-01T10:20:30.484Z,32.20
2022-08-01T10:23:05.835Z,31.90
2022-08-01T10:25:42.850Z,31.40
2022-08-01T10:28:21.179Z,30.70
2022-08-01T10:30:49.711Z,30.30
2022-08-01T10:33:50.024Z,30.00
2022-08-01T10:36:08.643Z,30.50
2022-08-01T10:38:37.392Z,31.20
2022-08-01T10:41:06.395Z,31.80
2022-08-01T10:43:36.281Z,31.70
2022-08-01T10:46:04.903Z,31.20
2022-08-01T10:48:58.176Z,30.80
2022-08-01T10:51:52.713Z,30.50
2022-08-01T10:54:14.085Z,30.10
2022-08-01T10:56:48.728Z,29.80
2022-08-01T10:59:49.406Z,29.90
2022-08-01T11:02:10.400Z,30.20
2022-08-01T11:04:48.103Z,30.50
2022-08-01T11:07:25.633Z,31.30
2022-08-01T11:10:17.057Z,31.50
2022-08-01T11:12:45.904Z,31.90
2022-08-01T11:15:12.657Z,31.80
2022-08-01T11:17:48.878Z,31.50
2022-08-01T11:20:18.345Z,31.20
2022-08-01T11:23:11.706Z,31.10
2022-08-01T11:26:06.755Z,31.00
2022-08-01T11:28:30.205Z,31.40
2022-08-01T11:31:13.947Z,31.30
2022-08-01T11:33:48.807Z,31.60
2022-08-01T11:36:36.797Z,32.00
2022-08-01T11:39:13.774Z,32.20
2022-08-01T11:41:42.471Z,32.90
2022-08-01T11:44:20.975Z,33.60
2022-08-01T11:46:56.394Z,34.20
2022-08-01T11:49:36.123Z,34.50
2022-08-01T11:52:17.948Z,34.40
2022-08-01T11:54:46.586Z,34.00
2022-08-01T11:57:15.414Z,33.90
2022-08-01T12:00:02.261Z,34.40
2022-08-01T12:02:39.137Z,34.40
2022-08-01T12:05:12.973Z,34.30
2022-08-01T12:07:42.876Z,34.10
2022-08-01T12:10:12.826Z,34.50
2022-08-01T12:13:04.473Z,34.50
2022-08-01T12:15:33.780Z,34.70
2022-08-01T12:18:02.802Z,34.40
2022-08-01T12:20:42.761Z,33.90
2022-08-01T12:23:21.366Z,33.80
2022-08-01T12:25:53.106Z,33.60
2022-08-01T12:28:20.184Z,33.20
2022-08-01T12:30:49.332Z,33.60
2022-08-01T12:33:19.555Z,34.20
2022-08-01T12:35:46.506Z,34.30
2022-08-01T12:38:23.910Z,34.50
2022-08-01T12:40:53.191Z,34.90
2022-08-01T12:43:28.093Z,35.40
2022-08-01T12:45:58.636Z,35.80
2022-08-01T12:48:26.468Z,35.60
2022-08-01T12:50:54.689Z,35.90
2022-08-01T12:53:22.534Z,36.30
2022-08-01T12:55:59.412Z,36.20
2022-08-01T12:58:34.662Z,35.80
2022-08-01T13:01:07.972Z,35.20
2022-08-01T13:03:35.389Z,34.50
2022-08-01T13:06:07.232Z,34.30
2022-08-01T13:08:35.455Z,34.70
2022-08-01T13:11:28.873Z,35.50
2022-08-01T13:13:57.820Z,35.90
2022-08-01T13:16:43.306Z,36.00
2022-08-01T13:19:18.125Z,35.40
2022-08-01T13:21:57.085Z,34.50
2022-08-01T13:24:29.385Z,33.80
2022-08-01T13:27:00.714Z,33.10
2022-08-01T13:29:42.325Z,33.30
2022-08-01T13:32:29.702Z,33.50
2022-08-01T13:35:09.097Z,34.10
2022-08-01T13:37:38.714Z,34.60
2022-08-01T13:40:07.378Z,34.20
2022-08-01T13:42:34.357Z,33.80
2022-08-01T13:45:03.010Z,33.20
2022-08-01T13:47:32.560Z,33.20
2022-08-01T13:50:03.095Z,32.90
2022-08-01T13:52:31.562Z,32.60
2022-08-01T13:54:58.760Z,32.10
2022-08-01T13:57:25.617Z,32.10
2022-08-01T14:00:06.490Z,32.60
2022-08-01T14:02:38.895Z,33.40
2022-08-01T14:05:06.273Z,34.10
2022-08-01T14:07:33.184Z,34.60
2022-08-01T14:10:04.910Z,35.10
2022-08-01T14:12:46.016Z,34.90
2022-08-01T14:15:12.885Z,34.60
2022-08-01T14:17:47.591Z,33.90
2022-08-01T14:20:15.025Z,33.60
2022-08-01T14:22:41.901Z,33.20
2022-08-01T14:25:09.312Z,33.00
2022-08-01T14:27:37.194Z,33.10
2022-08-01T14:30:08.805Z,33.20
2022-08-01T14:32:36.091Z,33.60
2022-08-01T14:35:04.616Z,33.40
2022-08-01T14:37:37.365Z,33.00
2022-08-01T14:40:09.763Z,32.70
2022-08-01T14:42:37.626Z,32.70
2022-08-01T14:45:09.641Z,32.70
2022-08-01T14:47:38.059Z,32.70
2022-08-01T14:50:07.151Z,32.70
2022-08-01T14:52:36.675Z,32.50
2022-08-01T14:55:05.229Z,32.30
2022-08-01T14:57:32.024Z,31.90
2022-08-01T14:59:59.016Z,31.50
2022-08-01T15:02:26.099Z,31.10
2022-08-01T15:04:53.362Z,30.80
2022-08-01T15:07:20.497Z,30.70
2022-08-01T15:09:47.366Z,30.70
2022-08-01T15:12:14.386Z,31.00
2022-08-01T15:14:50.882Z,31.20
2022-08-01T15:17:25.166Z,31.50
2022-08-01T15:19:53.975Z,32.10
2022-08-01T15:22:22.457Z,32.60
2022-08-01T15:24:54.030Z,32.70
2022-08-01T15:27:30.908Z,32.70
2022-08-01T15:29:58.243Z,32.50
2022-08-01T15:32:25.161Z,32.20
2022-08-01T15:34:52.709Z,31.80
2022-08-01T15:37:19.759Z,31.50
2022-08-01T15:39:46.647Z,31.50
2022-08-01T15:42:39.967Z,31.60
2022-08-01T15:45:45.405Z,31.90
2022-08-01T15:48:06.666Z,32.00
2022-08-01T15:50:33.495Z,31.90
2022-08-01T15:53:01.721Z,31.70
2022-08-01T15:55:30.814Z,31.60
2022-08-01T15:57:57.708Z,31.30
2022-08-01T16:00:32.816Z,31.00
2022-08-01T16:03:05.921Z,30.60
2022-08-01T16:05:32.740Z,30.20
2022-08-01T16:08:01.742Z,30.00
2022-08-01T16:10:30.223Z,29.70
2022-08-01T16:12:57.035Z,29.50
2022-08-01T16:15:36.296Z,29.30
2022-08-01T16:18:05.464Z,29.10
2022-08-01T16:20:33.000Z,28.90
2022-08-01T16:23:00.103Z,28.80
2022-08-01T16:25:27.009Z,28.60
2022-08-01T16:27:53.767Z,28.50
2022-08-01T16:30:20.593Z,28.40
2022-08-01T16:32:48.995Z,28.40
2022-08-01T16:35:36.277Z,28.30
2022-08-01T16:38:05.203Z,28.10
2022-08-01T16:40:47.453Z,28.00
2022-08-01T16:43:15.927Z,27.80
2022-08-01T16:45:43.210Z,27.80
2022-08-01T16:48:12.305Z,27.70
2022-08-01T16:50:39.875Z,27.80
2022-08-01T16:53:06.680Z,27.80
2022-08-01T16:55:49.488Z,27.80
2022-08-01T16:58:28.047Z,27.80
2022-08-01T17:00:57.467Z,27.80
2022-08-01T17:03:51.620Z,27.90
2022-08-01T17:06:12.814Z,27.90
2022-08-01T17:08:46.461Z,27.90
2022-08-01T17:11:14.511Z,27.80
2022-08-01T17:13:41.843Z,27.90
2022-08-01T17:16:09.702Z,27.90
2022-08-01T17:18:37.831Z,27.90
2022-08-01T17:21:04.608Z,28.00
2022-08-01T17:23:31.906Z,28.00
2022-08-01T17:25:59.619Z,27.80
2022-08-01T17:28:27.261Z,27.70
2022-08-01T17:30:54.326Z,27.60
2022-08-01T17:33:21.155Z,27.50
2022-08-01T17:35:48.203Z,27.40
2022-08-01T17:38:14.993Z,27.20
2022-08-01T17:40:41.997Z,27.10
2022-08-01T17:43:09.110Z,26.90
2022-08-01T17:45:50.283Z,26.80
2022-08-01T17:48:19.275Z,26.70
2022-08-01T17:50:47.887Z,26.60
2022-08-01T17:53:16.177Z,26.40
2022-08-01T17:55:55.685Z,26.30
2022-08-01T17:58:51.490Z,26.20
2022-08-01T18:01:37.939Z,26.10
2022-08-01T18:04:13.251Z,25.90
2022-08-01T18:06:40.934Z,25.70
2022-08-01T18:09:32.571Z,25.50
2022-08-01T18:12:02.111Z,25.30
2022-08-01T18:14:40.210Z,25.10
2022-08-01T18:17:11.741Z,24.90
2022-08-01T18:19:39.639Z,24.70
2022-08-01T18:22:31.219Z,24.60
2022-08-01T18:24:54.365Z,24.40
2022-08-01T18:27:21.226Z,24.30
2022-08-01T18:29:48.724Z,24.20
2022-08-01T18:32:15.799Z,24.10
2022-08-01T18:34:42.575Z,24.10
2022-08-01T18:37:12.127Z,24.00
2022-08-01T18:39:41.212Z,23.90
2022-08-01T18:42:10.990Z,23.80
2022-08-01T18:44:37.783Z,23.70
2022-08-01T18:47:05.200Z,23.60
2022-08-01T18:49:32.393Z,23.50
2022-08-01T18:52:01.293Z,23.50
2022-08-01T18:54:28.045Z,23.40
2022-08-01T18:56:54.849Z,23.30
2022-08-01T18:59:23.144Z,23.20
2022-08-01T19:01:51.060Z,23.10
2022-08-01T19:04:18.481Z,23.00
2022-08-01T19:06:47.505Z,23.00
2022-08-01T19:09:14.703Z,22.80
2022-08-01T19:11:47.482Z,22.70
2022-08-01T19:14:14.269Z,22.60
2022-08-01T19:16:41.084Z,22.50
2022-08-01T19:19:09.701Z,22.40
2022-08-01T19:21:44.334Z,22.30
2022-08-01T19:24:17.367Z,22.30
2022-08-01T19:26:53.891Z,22.20
2022-08-01T19:29:35.430Z,22.10
2022-08-01T19:32:10.082Z,22.00
2022-08-01T19:34:47.409Z,21.90
2022-08-01T19:37:14.890Z,21.80
2022-08-01T19:39:44.364Z,21.70
2022-08-01T19:42:12.758Z,21.60
2022-08-01T19:44:40.290Z,21.50
2022-08-01T19:47:07.495Z,21.50
2022-08-01T19:49:34.927Z,21.40
2022-08-01T19:52:03.622Z,21.40
2022-08-01T19:54:35.811Z,21.30
2022-08-01T19:57:05.573Z,21.20
2022-08-01T19:59:34.903Z,21.10
2022-08-01T20:02:02.521Z,21.00
2022-08-01T20:04:29.698Z,20.90
2022-08-01T20:06:57.030Z,20.80
2022-08-01T20:09:23.819Z,20.80
2022-08-01T20:11:53.234Z,20.70
2022-08-01T20:14:22.778Z,20.60
2022-08-01T20:16:51.542Z,20.50
2022-08-01T20:19:21.012Z,20.50
2022-08-01T20:22:02.766Z,20.50
2022-08-01T20:24:39.632Z,20.40
2022-08-01T20:27:09.709Z,20.30
2022-08-01T20:29:37.274Z,20.30
2022-08-01T20:32:05.278Z,20.20
2022-08-01T20:34:39.455Z,20.20
2022-08-01T20:37:12.834Z,20.20
2022-08-01T20:39:44.008Z,20.10
2022-08-01T20:42:11.889Z,20.00
2022-08-01T20:44:38.973Z,20.00
2022-08-01T20:47:06.080Z,19.90
2022-08-01T20:49:35.754Z,19.90
2022-08-01T20:52:11.682Z,19.90
2022-08-01T20:54:40.745Z,19.80
2022-08-01T20:57:17.911Z,19.80
2022-08-01T20:59:56.685Z,19.80
2022-08-01T21:02:24.135Z,19.80
2022-08-01T21:05:07.343Z,19.80
2022-08-01T21:07:50.911Z,19.80
2022-08-01T21:10:24.235Z,19.80
2022-08-01T21:12:54.160Z,19.80
2022-08-01T21:15:34.309Z,19.90
2022-08-01T21:18:16.356Z,19.90
2022-08-01T21:20:46.259Z,19.90
2022-08-01T21:23:23.191Z,19.90
2022-08-01T21:25:50.982Z,19.90
2022-08-01T21:28:18.802Z,19.80
2022-08-01T21:30:53.771Z,19.80
2022-08-01T21:33:24.807Z,19.70
2022-08-01T21:36:00.101Z,19.70
2022-08-01T21:38:32.777Z,19.60
2022-08-01T21:41:03.523Z,19.60
2022-08-01T21:43:32.887Z,19.50
2022-08-01T21:46:01.250Z,19.50
2022-08-01T21:48:31.011Z,19.40
2022-08-01T21:50:59.524Z,19.40
2022-08-01T21:53:43.435Z,19.40
2022-08-01T21:56:20.243Z,19.30
2022-08-01T21:59:10.386Z,19.30
2022-08-01T22:01:52.175Z,19.20
2022-08-01T22:04:27.226Z,19.10
2022-08-01T22:06:55.447Z,18.90
2022-08-01T22:09:23.093Z,18.80
2022-08-01T22:12:01.056Z,18.70
2022-08-01T22:14:30.079Z,18.60
2022-08-01T22:16:58.772Z,18.50
2022-08-01T22:19:34.126Z,18.40
2022-08-01T22:22:44.279Z,18.30
2022-08-01T22:25:01.320Z,18.30
2022-08-01T22:28:06.463Z,18.20
2022-08-01T22:30:17.618Z,18.10
2022-08-01T22:33:07.182Z,18.10
2022-08-01T22:35:33.977Z,18.00
2022-08-01T22:38:01.579Z,17.90
2022-08-01T22:40:34.198Z,17.90
2022-08-01T22:43:06.718Z,17.90
2022-08-01T22:45:47.459Z,17.80
2022-08-01T22:48:34.175Z,17.70
2022-08-01T22:51:09.161Z,17.70
2022-08-01T22:53:59.957Z,17.60
2022-08-01T22:56:29.326Z,17.60
2022-08-01T22:59:01.592Z,17.50
2022-08-01T23:01:30.099Z,17.50
2022-08-01T23:03:59.083Z,17.50
2022-08-01T23:06:41.140Z,17.40
2022-08-01T23:09:10.211Z,17.40
2022-08-01T23:11:38.065Z,17.40
2022-08-01T23:14:05.483Z,17.30
2022-08-01T23:16:35.319Z,17.30
2022-08-01T23:19:03.809Z,17.30
2022-08-01T23:21:32.059Z,17.20
2022-08-01T23:24:01.632Z,17.20
2022-08-01T23:26:30.241Z,17.20
2022-08-01T23:28:58.875Z,17.10
2022-08-01T23:31:55.595Z,17.10
2022-08-01T23:34:19.606Z,17.10
2022-08-01T23:36:46.824Z,17.00
2022-08-01T23:39:14.715Z,17.00
2022-08-01T23:41:58.189Z,16.90
2022-08-01T23:44:26.637Z,16.90
2022-08-01T23:46:53.405Z,16.90
2022-08-01T23:49:20.567Z,16.90
2022-08-01T23:51:47.650Z,16.90
2022-08-01T23:54:14.451Z,16.80
2022-08-01T23:56:41.236Z,16.70
2022-08-01T23:59:10.036Z,16.70
